sensor_id;sensor_type;location;lat;lon;timestamp;pressure;altitude;pressure_sealevel;temperature;humidity
44079;BME280;29744;49.078;12.878;2024-03-07T00:04:15;96787.50;;;13.73;38.74
44079;BME280;29744;49.078;12.878;2024-03-07T00:09:15;96782.09;;;13.73;38.55
44079;BME280;29744;49.078;12.878;2024-03-07T00:14:16;96781.31;;;13.72;38.93
44079;BME280;29744;49.078;12.878;2024-03-07T00:19:16;96768.13;;;13.71;38.75
44079;BME280;29744;49.078;12.878;2024-03-07T00:24:17;96769.25;;;13.70;38.68
44079;BME280;29744;49.078;12.878;2024-03-07T00:29:18;96770.03;;;13.70;38.79
44079;BME280;29744;49.078;12.878;2024-03-07T00:34:19;96772.75;;;13.70;38.67
44079;BME280;29744;49.078;12.878;2024-03-07T00:39:20;96769.56;;;13.68;38.43
44079;BME280;29744;49.078;12.878;2024-03-07T00:44:21;96775.75;;;13.69;39.00
44079;BME280;29744;49.078;12.878;2024-03-07T00:49:21;96768.75;;;13.68;38.64
44079;BME280;29744;49.078;12.878;2024-03-07T00:54:21;96767.97;;;13.67;38.54
44079;BME280;29744;49.078;12.878;2024-03-07T00:59:22;96764.47;;;13.67;38.62
44079;BME280;29744;49.078;12.878;2024-03-07T01:04:23;96762.41;;;13.64;38.79
44079;BME280;29744;49.078;12.878;2024-03-07T01:09:23;96764.00;;;13.65;39.13
44079;BME280;29744;49.078;12.878;2024-03-07T01:14:24;96757.00;;;13.64;38.77
44079;BME280;29744;49.078;12.878;2024-03-07T01:19:24;96764.00;;;13.65;38.48
44079;BME280;29744;49.078;12.878;2024-03-07T01:24:24;96752.41;;;13.64;38.79
44079;BME280;29744;49.078;12.878;2024-03-07T01:29:26;96772.38;;;13.63;39.07
44079;BME280;29744;49.078;12.878;2024-03-07T01:34:27;96771.59;;;13.63;38.71
44079;BME280;29744;49.078;12.878;2024-03-07T01:39:27;96772.38;;;13.63;38.66
44079;BME280;29744;49.078;12.878;2024-03-07T01:44:27;96764.59;;;13.62;38.79
44079;BME280;29744;49.078;12.878;2024-03-07T01:49:31;96764.91;;;13.60;38.72
44079;BME280;29744;49.078;12.878;2024-03-07T01:54:32;96758.44;;;13.61;38.57
44079;BME280;29744;49.078;12.878;2024-03-07T01:59:32;96747.94;;;13.60;38.76
44079;BME280;29744;49.078;12.878;2024-03-07T02:04:33;96756.03;;;13.60;39.01
44079;BME280;29744;49.078;12.878;2024-03-07T02:09:33;96751.75;;;13.59;39.03
44079;BME280;29744;49.078;12.878;2024-03-07T02:14:36;96754.44;;;13.59;39.01
44079;BME280;29744;49.078;12.878;2024-03-07T02:19:36;96749.38;;;13.57;38.74
44079;BME280;29744;49.078;12.878;2024-03-07T02:24:36;96750.16;;;13.58;38.91
44079;BME280;29744;49.078;12.878;2024-03-07T02:29:37;96756.66;;;13.57;38.60
44079;BME280;29744;49.078;12.878;2024-03-07T02:34:38;96751.28;;;13.57;38.64
44079;BME280;29744;49.078;12.878;2024-03-07T02:39:38;96744.28;;;13.55;39.00
44079;BME280;29744;49.078;12.878;2024-03-07T02:44:39;96738.91;;;13.55;38.74
44079;BME280;29744;49.078;12.878;2024-03-07T02:49:39;96741.59;;;13.55;38.70
44079;BME280;29744;49.078;12.878;2024-03-07T02:54:40;96737.31;;;13.54;38.77
44079;BME280;29744;49.078;12.878;2024-03-07T02:59:40;96741.09;;;13.53;38.63
44079;BME280;29744;49.078;12.878;2024-03-07T03:04:41;96739.50;;;13.52;38.75
44079;BME280;29744;49.078;12.878;2024-03-07T03:09:41;96734.91;;;13.53;38.77
44079;BME280;29744;49.078;12.878;2024-03-07T03:14:43;96747.59;;;13.52;39.00
44079;BME280;29744;49.078;12.878;2024-03-07T03:19:43;96742.22;;;13.52;39.06
44079;BME280;29744;49.078;12.878;2024-03-07T03:24:44;96742.53;;;13.51;39.08
44079;BME280;29744;49.078;12.878;2024-03-07T03:29:44;96743.31;;;13.51;39.07
44079;BME280;29744;49.078;12.878;2024-03-07T03:34:45;96749.81;;;13.50;38.94
44079;BME280;29744;49.078;12.878;2024-03-07T03:39:45;96738.22;;;13.50;38.98
44079;BME280;29744;49.078;12.878;2024-03-07T03:44:47;96735.53;;;13.50;38.73
44079;BME280;29744;49.078;12.878;2024-03-07T03:49:47;96730.47;;;13.48;38.78
44079;BME280;29744;49.078;12.878;2024-03-07T03:54:47;96729.34;;;13.49;39.14
44079;BME280;29744;49.078;12.878;2024-03-07T03:59:48;96726.19;;;13.47;38.99
44079;BME280;29744;49.078;12.878;2024-03-07T04:04:52;96728.88;;;13.47;38.80
44079;BME280;29744;49.078;12.878;2024-03-07T04:09:52;96725.38;;;13.47;38.81
44079;BME280;29744;49.078;12.878;2024-03-07T04:14:53;96719.19;;;13.46;38.72
44079;BME280;29744;49.078;12.878;2024-03-07T04:19:55;96721.09;;;13.46;38.96
44079;BME280;29744;49.078;12.878;2024-03-07T04:24:55;96719.50;;;13.45;38.75
44079;BME280;29744;49.078;12.878;2024-03-07T04:29:55;96723.00;;;13.45;39.09
44079;BME280;29744;49.078;12.878;2024-03-07T04:34:55;96716.03;;;13.44;38.72
44079;BME280;29744;49.078;12.878;2024-03-07T04:40:00;96723.00;;;13.45;38.99
44079;BME280;29744;49.078;12.878;2024-03-07T04:45:00;96730.78;;;13.47;38.72
44079;BME280;29744;49.078;12.878;2024-03-07T04:50:02;96719.38;;;13.50;39.05
44079;BME280;29744;49.078;12.878;2024-03-07T04:55:04;96714.16;;;13.53;38.61
44079;BME280;29744;49.078;12.878;2024-03-07T05:00:09;96714.03;;;13.59;38.62
44079;BME280;29744;49.078;12.878;2024-03-07T05:05:14;96715.16;;;13.66;38.76
44079;BME280;29744;49.078;12.878;2024-03-07T05:10:14;96723.59;;;13.73;38.69
44079;BME280;29744;49.078;12.878;2024-03-07T05:15:14;96726.66;;;13.80;38.67
44079;BME280;29744;49.078;12.878;2024-03-07T05:20:15;96732.09;;;13.89;38.42
44079;BME280;29744;49.078;12.878;2024-03-07T05:25:16;96726.72;;;13.98;38.88
44079;BME280;29744;49.078;12.878;2024-03-07T05:30:18;96725.66;;;14.07;38.67
44079;BME280;29744;49.078;12.878;2024-03-07T05:35:19;96727.25;;;14.17;38.39
44079;BME280;29744;49.078;12.878;2024-03-07T05:40:20;96725.72;;;14.25;38.34
44079;BME280;29744;49.078;12.878;2024-03-07T05:45:20;96724.47;;;14.31;38.23
44079;BME280;29744;49.078;12.878;2024-03-07T05:50:21;96728.59;;;14.37;38.02
44079;BME280;29744;49.078;12.878;2024-03-07T05:55:21;96728.75;;;14.40;38.33
44079;BME280;29744;49.078;12.878;2024-03-07T06:00:22;96735.91;;;14.45;38.56
44079;BME280;29744;49.078;12.878;2024-03-07T06:05:28;96742.28;;;14.49;38.48
44079;BME280;29744;49.078;12.878;2024-03-07T06:10:28;96733.06;;;14.50;38.32
44079;BME280;29744;49.078;12.878;2024-03-07T06:15:28;96738.94;;;14.52;38.40
44079;BME280;29744;49.078;12.878;2024-03-07T06:20:29;96737.81;;;14.53;38.35
44079;BME280;29744;49.078;12.878;2024-03-07T06:25:29;96748.31;;;14.55;38.20
44079;BME280;29744;49.078;12.878;2024-03-07T06:30:47;96747.50;;;14.54;38.20
44079;BME280;29744;49.078;12.878;2024-03-07T06:35:48;96737.50;;;14.55;38.25
44079;BME280;29744;49.078;12.878;2024-03-07T06:40:48;96742.91;;;14.55;37.63
44079;BME280;29744;49.078;12.878;2024-03-07T06:45:49;96741.00;;;14.55;37.94
44079;BME280;29744;49.078;12.878;2024-03-07T06:50:50;96751.00;;;14.55;37.69
44079;BME280;29744;49.078;12.878;2024-03-07T06:55:51;96748.63;;;14.53;37.66
44079;BME280;29744;49.078;12.878;2024-03-07T07:00:54;96755.94;;;14.53;37.91
44079;BME280;29744;49.078;12.878;2024-03-07T07:05:54;96752.44;;;14.52;37.98
44079;BME280;29744;49.078;12.878;2024-03-07T07:10:55;96760.53;;;14.52;37.85
44079;BME280;29744;49.078;12.878;2024-03-07T07:15:56;96757.34;;;14.50;38.19
44079;BME280;29744;49.078;12.878;2024-03-07T07:20:56;96751.47;;;14.48;37.61
44079;BME280;29744;49.078;12.878;2024-03-07T07:25:58;96749.56;;;14.48;37.96
44079;BME280;29744;49.078;12.878;2024-03-07T07:30:58;96746.06;;;14.48;38.01
44079;BME280;29744;49.078;12.878;2024-03-07T07:35:59;96752.59;;;14.47;37.60
44079;BME280;29744;49.078;12.878;2024-03-07T07:41:00;96751.78;;;14.46;37.71
44079;BME280;29744;49.078;12.878;2024-03-07T07:46:01;96751.00;;;14.46;37.95
44079;BME280;29744;49.078;12.878;2024-03-07T07:51:01;96747.81;;;14.44;37.52
44079;BME280;29744;49.078;12.878;2024-03-07T07:56:02;96745.13;;;14.44;38.08
44079;BME280;29744;49.078;12.878;2024-03-07T08:01:02;96743.06;;;14.41;37.63
44079;BME280;29744;49.078;12.878;2024-03-07T08:06:03;96744.47;;;14.38;37.73
44079;BME280;29744;49.078;12.878;2024-03-07T08:11:03;96742.88;;;14.37;37.81
44079;BME280;29744;49.078;12.878;2024-03-07T08:16:04;96753.69;;;14.37;37.82
44079;BME280;29744;49.078;12.878;2024-03-07T08:21:05;96748.59;;;14.36;37.79
44079;BME280;29744;49.078;12.878;2024-03-07T08:26:06;96748.91;;;14.34;37.80
44079;BME280;29744;49.078;12.878;2024-03-07T08:31:06;96751.91;;;14.33;37.89
44079;BME280;29744;49.078;12.878;2024-03-07T08:36:06;96763.81;;;14.32;37.95
44079;BME280;29744;49.078;12.878;2024-03-07T08:41:10;96759.53;;;14.31;37.69
44079;BME280;29744;49.078;12.878;2024-03-07T08:46:12;96753.97;;;14.27;37.93
44079;BME280;29744;49.078;12.878;2024-03-07T08:51:12;96761.28;;;14.27;38.08
44079;BME280;29744;49.078;12.878;2024-03-07T08:56:13;96754.28;;;14.26;37.81
44079;BME280;29744;49.078;12.878;2024-03-07T09:01:13;96756.50;;;14.24;38.44
44079;BME280;29744;49.078;12.878;2024-03-07T09:06:14;96755.09;;;14.26;38.56
44079;BME280;29744;49.078;12.878;2024-03-07T09:11:15;96747.94;;;14.30;38.57
44079;BME280;29744;49.078;12.878;2024-03-07T09:16:16;96744.31;;;14.35;38.56
44079;BME280;29744;49.078;12.878;2024-03-07T09:21:16;96741.78;;;14.38;38.92
44079;BME280;29744;49.078;12.878;2024-03-07T09:26:16;96736.06;;;14.40;38.59
44079;BME280;29744;49.078;12.878;2024-03-07T09:31:17;96739.56;;;14.40;38.83
44079;BME280;29744;49.078;12.878;2024-03-07T09:36:17;96731.78;;;14.39;38.75
44079;BME280;29744;49.078;12.878;2024-03-07T09:41:19;96727.50;;;14.38;38.64
44079;BME280;29744;49.078;12.878;2024-03-07T09:46:24;96724.31;;;14.36;38.87
44079;BME280;29744;49.078;12.878;2024-03-07T09:51:24;96728.13;;;14.35;38.43
44079;BME280;29744;49.078;12.878;2024-03-07T09:56:27;96723.34;;;14.32;38.46
44079;BME280;29744;49.078;12.878;2024-03-07T10:01:37;96721.28;;;14.29;38.67
44079;BME280;29744;49.078;12.878;2024-03-07T10:06:40;96725.41;;;14.26;38.39
44079;BME280;29744;49.078;12.878;2024-03-07T10:11:40;96729.22;;;14.25;38.33
44079;BME280;29744;49.078;12.878;2024-03-07T10:16:43;96720.63;;;14.23;38.66
44079;BME280;29744;49.078;12.878;2024-03-07T10:21:44;96730.91;;;14.21;38.75
44079;BME280;29744;49.078;12.878;2024-03-07T10:26:44;96729.34;;;14.20;38.81
44079;BME280;29744;49.078;12.878;2024-03-07T10:31:46;96721.06;;;14.16;38.54
44079;BME280;29744;49.078;12.878;2024-03-07T10:36:47;96731.84;;;14.16;38.42
44079;BME280;29744;49.078;12.878;2024-03-07T10:41:48;96741.06;;;14.15;38.32
44079;BME280;29744;49.078;12.878;2024-03-07T10:46:55;96735.19;;;14.13;38.78
44079;BME280;29744;49.078;12.878;2024-03-07T10:52:03;96736.59;;;14.11;38.59
44079;BME280;29744;49.078;12.878;2024-03-07T10:57:20;96730.72;;;14.09;38.67
44079;BME280;29744;49.078;12.878;2024-03-07T11:07:27;96728.34;;;14.07;38.42
44079;BME280;29744;49.078;12.878;2024-03-07T11:12:29;96724.06;;;14.06;38.54
44079;BME280;29744;49.078;12.878;2024-03-07T11:17:29;96731.34;;;14.06;38.51
44079;BME280;29744;49.078;12.878;2024-03-07T11:22:31;96730.88;;;14.04;38.47
44079;BME280;29744;49.078;12.878;2024-03-07T11:27:36;96720.09;;;14.04;38.86
44079;BME280;29744;49.078;12.878;2024-03-07T11:32:40;96723.91;;;14.03;38.67
44079;BME280;29744;49.078;12.878;2024-03-07T11:37:42;96711.50;;;14.02;38.57
44079;BME280;29744;49.078;12.878;2024-03-07T11:42:47;96710.72;;;14.01;38.85
44079;BME280;29744;49.078;12.878;2024-03-07T11:47:48;96701.84;;;14.01;38.96
44079;BME280;29744;49.078;12.878;2024-03-07T11:52:48;96691.38;;;13.99;38.79
44079;BME280;29744;49.078;12.878;2024-03-07T11:57:50;96684.38;;;13.98;38.77
44079;BME280;29744;49.078;12.878;2024-03-07T12:02:54;96682.00;;;13.97;38.63
44079;BME280;29744;49.078;12.878;2024-03-07T12:07:56;96676.28;;;13.98;38.65
44079;BME280;29744;49.078;12.878;2024-03-07T12:12:56;96666.63;;;13.97;38.71
44079;BME280;29744;49.078;12.878;2024-03-07T12:17:57;96682.31;;;13.95;38.43
44079;BME280;29744;49.078;12.878;2024-03-07T12:22:59;96676.91;;;13.95;38.70
44079;BME280;29744;49.078;12.878;2024-03-07T12:28:10;96669.94;;;13.94;38.89
44079;BME280;29744;49.078;12.878;2024-03-07T12:33:21;96667.25;;;13.94;39.10
44079;BME280;29744;49.078;12.878;2024-03-07T12:38:23;96665.66;;;13.93;38.38
44079;BME280;29744;49.078;12.878;2024-03-07T12:43:24;96671.06;;;13.93;38.97
44079;BME280;29744;49.078;12.878;2024-03-07T12:48:25;96672.94;;;13.93;38.43
44079;BME280;29744;49.078;12.878;2024-03-07T12:53:25;96671.38;;;13.92;38.75
44079;BME280;29744;49.078;12.878;2024-03-07T12:58:25;96667.06;;;13.91;38.72
44079;BME280;29744;49.078;12.878;2024-03-07T13:03:26;96673.56;;;13.90;38.71
44079;BME280;29744;49.078;12.878;2024-03-07T13:08:30;96667.38;;;13.89;38.68
44079;BME280;29744;49.078;12.878;2024-03-07T13:13:30;96664.22;;;13.87;38.69
44079;BME280;29744;49.078;12.878;2024-03-07T13:18:30;96669.59;;;13.87;38.79
44079;BME280;29744;49.078;12.878;2024-03-07T13:23:33;96659.13;;;13.85;38.99
44079;BME280;29744;49.078;12.878;2024-03-07T13:28:34;96665.31;;;13.86;38.69
44079;BME280;29744;49.078;12.878;2024-03-07T13:33:38;96661.03;;;13.85;38.99
44079;BME280;29744;49.078;12.878;2024-03-07T13:38:38;96662.16;;;13.84;38.66
44079;BME280;29744;49.078;12.878;2024-03-07T13:43:39;96662.47;;;13.82;38.87
44079;BME280;29744;49.078;12.878;2024-03-07T13:48:39;96651.66;;;13.82;38.68
44079;BME280;29744;49.078;12.878;2024-03-07T13:53:42;96658.97;;;13.82;38.57
44079;BME280;29744;49.078;12.878;2024-03-07T14:21:07;96667.78;;;13.74;38.59
44079;BME280;29744;49.078;12.878;2024-03-07T14:31:38;96655.09;;;13.74;38.88
44079;BME280;29744;49.078;12.878;2024-03-07T14:36:51;96650.03;;;13.73;38.88
44079;BME280;29744;49.078;12.878;2024-03-07T14:41:57;96648.13;;;13.73;38.81
44079;BME280;29744;49.078;12.878;2024-03-07T14:47:01;96643.53;;;13.74;38.88
44079;BME280;29744;49.078;12.878;2024-03-07T14:52:06;96643.53;;;13.74;38.78
44079;BME280;29744;49.078;12.878;2024-03-07T14:57:10;96642.75;;;13.73;38.98
44079;BME280;29744;49.078;12.878;2024-03-07T15:02:12;96636.56;;;13.73;38.79
44079;BME280;29744;49.078;12.878;2024-03-07T15:07:14;96643.84;;;13.72;38.96
44079;BME280;29744;49.078;12.878;2024-03-07T15:12:14;96645.75;;;13.72;38.95
44079;BME280;29744;49.078;12.878;2024-03-07T15:17:15;96642.25;;;13.71;39.05
44079;BME280;29744;49.078;12.878;2024-03-07T15:22:17;96644.16;;;13.71;39.07
44079;BME280;29744;49.078;12.878;2024-03-07T15:27:20;96635.28;;;13.70;39.09
44079;BME280;29744;49.078;12.878;2024-03-07T15:32:21;96633.69;;;13.69;38.70
44079;BME280;29744;49.078;12.878;2024-03-07T15:37:22;96626.72;;;13.68;38.74
44079;BME280;29744;49.078;12.878;2024-03-07T15:42:23;96631.31;;;13.68;38.91
44079;BME280;29744;49.078;12.878;2024-03-07T15:47:24;96626.72;;;13.68;38.95
44079;BME280;29744;49.078;12.878;2024-03-07T15:52:25;96621.63;;;13.67;38.86
44079;BME280;29744;49.078;12.878;2024-03-07T15:57:25;96632.41;;;13.67;39.06
44079;BME280;29744;49.078;12.878;2024-03-07T16:02:27;96616.25;;;13.67;38.84
44079;BME280;29744;49.078;12.878;2024-03-07T16:07:27;96622.75;;;13.66;38.68
44079;BME280;29744;49.078;12.878;2024-03-07T16:12:27;96623.84;;;13.65;38.67
44079;BME280;29744;49.078;12.878;2024-03-07T16:17:28;96620.06;;;13.66;38.99
44079;BME280;29744;49.078;12.878;2024-03-07T16:22:29;96613.56;;;13.67;38.62
44079;BME280;29744;49.078;12.878;2024-03-07T16:27:30;96610.06;;;13.66;38.63
44079;BME280;29744;49.078;12.878;2024-03-07T16:32:33;96611.34;;;13.69;38.46
44079;BME280;29744;49.078;12.878;2024-03-07T16:37:39;96610.22;;;13.70;38.64
44079;BME280;29744;49.078;12.878;2024-03-07T16:42:40;96618.00;;;13.71;38.53
44079;BME280;29744;49.078;12.878;2024-03-07T16:47:43;96620.06;;;13.74;38.67
44079;BME280;29744;49.078;12.878;2024-03-07T16:52:45;96622.44;;;13.76;39.12
44079;BME280;29744;49.078;12.878;2024-03-07T16:57:49;96616.44;;;13.79;38.50
44079;BME280;29744;49.078;12.878;2024-03-07T17:02:49;96629.31;;;13.82;38.57
44079;BME280;29744;49.078;12.878;2024-03-07T17:07:50;96620.59;;;13.85;38.95
44079;BME280;29744;49.078;12.878;2024-03-07T17:12:50;96620.28;;;13.86;38.98
44079;BME280;29744;49.078;12.878;2024-03-07T17:17:52;96619.34;;;13.91;38.82
44079;BME280;29744;49.078;12.878;2024-03-07T17:22:54;96620.94;;;13.92;38.86
44079;BME280;29744;49.078;12.878;2024-03-07T17:27:55;96622.69;;;13.97;38.62
44079;BME280;29744;49.078;12.878;2024-03-07T17:32:57;96626.66;;;13.99;38.90
44079;BME280;29744;49.078;12.878;2024-03-07T17:37:59;96628.25;;;14.00;38.48
44079;BME280;29744;49.078;12.878;2024-03-07T17:43:02;96634.91;;;14.03;38.45
44079;BME280;29744;49.078;12.878;2024-03-07T17:48:03;96645.69;;;14.03;38.31
44079;BME280;29744;49.078;12.878;2024-03-07T17:53:05;96642.69;;;14.04;38.52
44079;BME280;29744;49.078;12.878;2024-03-07T17:58:09;96650.78;;;14.04;38.75
44079;BME280;29744;49.078;12.878;2024-03-07T18:03:11;96652.34;;;14.05;38.57
44079;BME280;29744;49.078;12.878;2024-03-07T18:08:11;96653.16;;;14.06;38.26
44079;BME280;29744;49.078;12.878;2024-03-07T18:13:16;96648.56;;;14.06;38.24
44079;BME280;29744;49.078;12.878;2024-03-07T18:18:18;96652.03;;;14.07;38.10
44079;BME280;29744;49.078;12.878;2024-03-07T18:23:21;96648.56;;;14.06;38.41
44079;BME280;29744;49.078;12.878;2024-03-07T18:28:21;96648.56;;;14.06;38.57
44079;BME280;29744;49.078;12.878;2024-03-07T18:33:22;96649.66;;;14.05;38.33
44079;BME280;29744;49.078;12.878;2024-03-07T18:38:22;96653.16;;;14.06;38.62
44079;BME280;29744;49.078;12.878;2024-03-07T18:43:22;96648.06;;;14.04;38.22
44079;BME280;29744;49.078;12.878;2024-03-07T18:48:23;96649.97;;;14.04;38.33
44079;BME280;29744;49.078;12.878;2024-03-07T18:53:23;96653.78;;;14.03;38.42
44079;BME280;29744;49.078;12.878;2024-03-07T18:58:24;96642.50;;;14.01;38.40
44079;BME280;29744;49.078;12.878;2024-03-07T19:03:26;96640.59;;;14.01;38.50
44079;BME280;29744;49.078;12.878;2024-03-07T19:08:28;96653.63;;;13.99;38.12
44079;BME280;29744;49.078;12.878;2024-03-07T19:13:30;96637.44;;;13.99;38.37
44079;BME280;29744;49.078;12.878;2024-03-07T19:18:34;96643.16;;;13.98;38.33
44079;BME280;29744;49.078;12.878;2024-03-07T19:23:35;96638.06;;;13.96;38.29
44079;BME280;29744;49.078;12.878;2024-03-07T19:28:37;96641.88;;;13.95;38.07
44079;BME280;29744;49.078;12.878;2024-03-07T19:33:38;96644.09;;;13.93;38.38
44079;BME280;29744;49.078;12.878;2024-03-07T19:38:38;96639.00;;;13.92;38.23
44079;BME280;29744;49.078;12.878;2024-03-07T19:43:38;96637.41;;;13.91;38.05
44079;BME280;29744;49.078;12.878;2024-03-07T19:48:39;96643.13;;;13.89;38.36
44079;BME280;29744;49.078;12.878;2024-03-07T19:53:39;96645.03;;;13.89;38.44
44079;BME280;29744;49.078;12.878;2024-03-07T19:58:39;96639.16;;;13.86;38.10
44079;BME280;29744;49.078;12.878;2024-03-07T20:03:40;96641.06;;;13.86;38.14
44079;BME280;29744;49.078;12.878;2024-03-07T20:08:41;96638.69;;;13.84;38.49
44079;BME280;29744;49.078;12.878;2024-03-07T20:13:44;96630.09;;;13.82;38.20
44079;BME280;29744;49.078;12.878;2024-03-07T20:18:44;96634.72;;;13.82;38.43
44079;BME280;29744;49.078;12.878;2024-03-07T20:23:46;96632.59;;;13.79;38.69
44079;BME280;29744;49.078;12.878;2024-03-07T20:28:46;96632.59;;;13.79;38.43
44079;BME280;29744;49.078;12.878;2024-03-07T20:33:47;96631.03;;;13.78;38.57
44079;BME280;29744;49.078;12.878;2024-03-07T20:38:47;96631.34;;;13.76;38.70
44079;BME280;29744;49.078;12.878;2024-03-07T20:43:47;96625.16;;;13.76;38.21
44079;BME280;29744;49.078;12.878;2024-03-07T20:48:49;96623.56;;;13.75;38.52
44079;BME280;29744;49.078;12.878;2024-03-07T20:53:50;96618.47;;;13.73;38.38
44079;BME280;29744;49.078;12.878;2024-03-07T20:58:51;96620.38;;;13.73;38.26
44079;BME280;29744;49.078;12.878;2024-03-07T21:03:52;96630.38;;;13.72;38.54
44079;BME280;29744;49.078;12.878;2024-03-07T21:08:54;96625.28;;;13.71;38.79
44079;BME280;29744;49.078;12.878;2024-03-07T21:13:55;96616.41;;;13.70;38.50
44079;BME280;29744;49.078;12.878;2024-03-07T21:18:56;96615.94;;;13.68;38.75
44079;BME280;29744;49.078;12.878;2024-03-07T21:23:56;96616.25;;;13.67;38.80
44079;BME280;29744;49.078;12.878;2024-03-07T21:28:56;96614.66;;;13.66;38.30
44079;BME280;29744;49.078;12.878;2024-03-07T21:33:57;96618.47;;;13.65;38.26
44079;BME280;29744;49.078;12.878;2024-03-07T21:38:57;96608.00;;;13.63;38.57
44079;BME280;29744;49.078;12.878;2024-03-07T21:43:58;96610.69;;;13.63;38.58
44079;BME280;29744;49.078;12.878;2024-03-07T21:48:58;96605.31;;;13.63;38.52
44079;BME280;29744;49.078;12.878;2024-03-07T21:54:00;96603.72;;;13.62;38.85
44079;BME280;29744;49.078;12.878;2024-03-07T21:59:01;96595.94;;;13.61;38.88
44079;BME280;29744;49.078;12.878;2024-03-07T22:04:02;96594.34;;;13.60;38.33
44079;BME280;29744;49.078;12.878;2024-03-07T22:09:05;96607.03;;;13.59;38.69
44079;BME280;29744;49.078;12.878;2024-03-07T22:14:05;96596.25;;;13.59;38.32
44079;BME280;29744;49.078;12.878;2024-03-07T22:19:05;96599.25;;;13.58;38.54
44079;BME280;29744;49.078;12.878;2024-03-07T22:24:07;96594.19;;;13.56;38.47
44079;BME280;29744;49.078;12.878;2024-03-07T22:29:08;96595.78;;;13.57;38.65
44079;BME280;29744;49.078;12.878;2024-03-07T22:34:10;96585.31;;;13.55;38.35
44079;BME280;29744;49.078;12.878;2024-03-07T22:39:10;96580.72;;;13.56;38.44
44079;BME280;29744;49.078;12.878;2024-03-07T22:44:12;96582.63;;;13.55;38.78
44079;BME280;29744;49.078;12.878;2024-03-07T22:49:13;96571.34;;;13.53;38.77
44079;BME280;29744;49.078;12.878;2024-03-07T22:54:13;96565.97;;;13.53;38.71
44079;BME280;29744;49.078;12.878;2024-03-07T22:59:14;96573.25;;;13.53;38.65
44079;BME280;29744;49.078;12.878;2024-03-07T23:04:14;96556.28;;;13.52;38.64
44079;BME280;29744;49.078;12.878;2024-03-07T23:09:15;96560.91;;;13.52;38.82
44079;BME280;29744;49.078;12.878;2024-03-07T23:14:20;96558.19;;;13.52;38.64
44079;BME280;29744;49.078;12.878;2024-03-07T23:19:22;96551.53;;;13.49;38.85
44079;BME280;29744;49.078;12.878;2024-03-07T23:24:26;96546.16;;;13.49;38.39
44079;BME280;29744;49.078;12.878;2024-03-07T23:29:26;96554.53;;;13.48;38.60
44079;BME280;29744;49.078;12.878;2024-03-07T23:34:29;96548.38;;;13.47;38.36
44079;BME280;29744;49.078;12.878;2024-03-07T23:39:30;96542.97;;;13.47;38.31
44079;BME280;29744;49.078;12.878;2024-03-07T23:44:31;96545.66;;;13.47;38.36
44079;BME280;29744;49.078;12.878;2024-03-07T23:49:31;96540.28;;;13.47;38.72
44079;BME280;29744;49.078;12.878;2024-03-07T23:54:31;96534.41;;;13.45;38.47
44079;BME280;29744;49.078;12.878;2024-03-07T23:59:32;96535.50;;;13.44;38.81
